Time;durP1;ratioP1;P1;durP2;ratioP2;P2;SDS_P1;SDS_P2;PMS_P1;PMS_P2;Temp;Humidity;BMP_temperature;BMP_pressure;BME280_temperature;BME280_humidity;BME280_pressure;Samples;Min_cycle;Max_cycle;Signal;HPM_P1;HPM_P2
2022/12/25 01:22:31;;;;;;;7.32;2.13;;;-2.40;99.90;;;;;;5069725;28;20575;-63
2022/12/25 01:25:49;;;;;;;3.88;1.77;;;-2.50;99.90;;;;;;5104419;28;20148;-63
2022/12/25 01:29:33;;;;;;;6.68;2.38;;;-2.40;99.90;;;;;;5097393;28;20709;-63
2022/12/25 01:33:39;;;;;;;6.03;2.28;;;-2.50;99.90;;;;;;5099096;28;20053;-61
2022/12/25 01:37:45;;;;;;;3.85;1.88;;;-2.40;99.90;;;;;;5095208;28;20173;-63
2022/12/25 01:41:53;;;;;;;3.58;2.17;;;-2.50;99.90;;;;;;5100631;28;20043;-60
2022/12/25 01:46:02;;;;;;;7.65;2.20;;;-2.40;99.90;;;;;;5100328;28;20084;-62
2022/12/25 01:50:09;;;;;;;11.73;2.60;;;-2.40;99.90;;;;;;5105047;28;20113;-62
2022/12/25 01:54:14;;;;;;;3.65;2.22;;;-2.40;99.90;;;;;;5092989;28;20441;-62
2022/12/25 01:58:20;;;;;;;2.65;1.88;;;-2.40;99.90;;;;;;5097885;28;20738;-62
2022/12/25 02:02:26;;;;;;;5.82;1.70;;;-2.40;99.90;;;;;;5100026;28;20180;-63
2022/12/25 02:06:32;;;;;;;7.13;2.20;;;-2.40;99.90;;;;;;5103791;28;20055;-63
2022/12/25 02:10:38;;;;;;;1.60;1.30;;;-2.40;99.90;;;;;;5098363;28;20207;-64
2022/12/25 02:14:44;;;;;;;4.70;1.30;;;-2.30;99.90;;;;;;5094060;28;20101;-62
2022/12/25 02:18:50;;;;;;;3.72;1.63;;;-2.30;99.90;;;;;;5104102;28;20053;-61
2022/12/25 09:25:14;;;;;;;6.45;3.17;;;0.50;99.90;;;;;;5082757;28;20070;-61
2022/12/25 09:27:42;;;;;;;4.95;3.47;;;0.50;99.90;;;;;;5097462;28;20066;-62
2022/12/25 09:30:09;;;;;;;7.97;4.63;;;0.60;99.90;;;;;;5096281;28;20181;-63
2022/12/25 09:32:39;;;;;;;6.93;3.33;;;0.60;99.90;;;;;;5102157;28;20139;-62
2022/12/25 09:35:07;;;;;;;4.87;3.97;;;0.70;99.90;;;;;;5092651;28;20117;-61
2022/12/25 09:37:34;;;;;;;7.10;6.28;;;0.70;99.90;;;;;;5098607;28;20047;-62
2022/12/25 09:40:01;;;;;;;3.83;2.72;;;0.80;99.90;;;;;;5098313;28;20083;-60
2022/12/25 09:42:30;;;;;;;5.22;3.30;;;0.80;99.90;;;;;;5099652;28;20075;-61
2022/12/25 09:45:03;;;;;;;3.60;2.42;;;0.90;99.90;;;;;;5096131;28;20598;-62
2022/12/25 09:47:34;;;;;;;3.90;2.30;;;1.00;99.90;;;;;;5103304;28;20119;-60
2022/12/25 09:50:12;;;;;;;4.20;2.72;;;1.00;99.90;;;;;;5101943;28;20135;-61
2022/12/25 09:52:57;;;;;;;2.55;2.28;;;1.10;99.90;;;;;;5099173;28;20118;-63
2022/12/25 09:55:28;;;;;;;4.35;2.22;;;1.10;99.90;;;;;;5101773;28;20105;-64
2022/12/25 09:57:57;;;;;;;2.78;2.20;;;1.20;99.90;;;;;;5098309;28;20063;-61
2022/12/25 10:00:30;;;;;;;3.65;2.08;;;1.10;99.90;;;;;;5099115;28;20058;-61
2022/12/25 10:03:33;;;;;;;3.92;2.10;;;1.20;99.90;;;;;;5095728;28;20433;-64
2022/12/25 10:06:17;;;;;;;2.65;2.00;;;1.20;99.90;;;;;;5104169;28;20141;-62
2022/12/25 10:08:46;;;;;;;3.42;2.55;;;1.10;99.90;;;;;;5095387;28;20525;-62
2022/12/25 10:11:42;;;;;;;3.97;2.53;;;1.10;99.90;;;;;;5098972;28;20773;-64
2022/12/25 10:14:09;;;;;;;3.38;2.00;;;1.10;99.90;;;;;;5098826;28;20063;-61
2022/12/25 10:17:04;;;;;;;4.32;1.77;;;1.10;99.90;;;;;;5095056;28;20150;-64
2022/12/25 10:20:00;;;;;;;4.55;2.38;;;1.00;99.90;;;;;;5087594;28;20052;-62
2022/12/25 10:22:46;;;;;;;5.32;1.95;;;1.00;99.90;;;;;;5100373;28;20059;-61
2022/12/25 10:25:22;;;;;;;3.63;1.60;;;1.00;99.90;;;;;;5095205;28;20630;-62
2022/12/25 10:28:04;;;;;;;3.28;1.75;;;0.90;99.90;;;;;;5101001;28;20047;-61
2022/12/25 10:30:31;;;;;;;3.92;1.92;;;0.90;99.90;;;;;;5096652;28;20625;-66
2022/12/25 10:32:59;;;;;;;3.35;1.63;;;0.80;99.90;;;;;;5093042;28;23452;-61
2022/12/25 10:35:28;;;;;;;4.50;2.05;;;0.80;99.90;;;;;;5103599;28;20647;-62
2022/12/25 10:38:01;;;;;;;2.72;2.22;;;0.80;99.90;;;;;;5100997;28;20253;-61
2022/12/25 10:40:43;;;;;;;2.25;1.67;;;0.80;99.90;;;;;;5097679;28;20136;-62
2022/12/25 10:43:20;;;;;;;1.85;1.67;;;0.90;99.90;;;;;;5103814;27;20044;-61
2022/12/25 10:45:48;;;;;;;4.53;2.45;;;0.90;99.90;;;;;;5101894;28;20117;-61
2022/12/25 10:48:25;;;;;;;3.20;2.70;;;0.90;99.90;;;;;;5098285;28;20109;-61
2022/12/25 10:50:52;;;;;;;1.80;1.65;;;1.00;99.90;;;;;;5096500;28;20371;-63
2022/12/25 10:53:23;;;;;;;4.10;1.73;;;1.00;99.90;;;;;;5095863;28;20075;-64
2022/12/25 10:55:57;;;;;;;3.30;1.75;;;1.00;99.90;;;;;;5100704;28;20048;-61
2022/12/25 10:58:25;;;;;;;2.63;1.92;;;1.10;99.90;;;;;;5094777;28;20047;-61
2022/12/25 11:01:04;;;;;;;3.33;2.17;;;1.10;99.90;;;;;;5097801;28;20048;-63
2022/12/25 11:03:34;;;;;;;4.75;2.47;;;1.10;99.90;;;;;;5097791;28;20108;-62
2022/12/25 11:06:02;;;;;;;2.92;2.35;;;1.00;99.90;;;;;;5094709;28;20377;-62
2022/12/25 11:08:30;;;;;;;4.07;1.98;;;1.10;99.90;;;;;;5099957;28;20462;-61
2022/12/25 11:11:04;;;;;;;4.35;1.80;;;1.10;99.90;;;;;;5088373;28;20086;-62
2022/12/25 11:13:39;;;;;;;3.65;1.90;;;1.10;99.90;;;;;;5095864;28;20136;-67
2022/12/25 11:16:13;;;;;;;3.80;1.95;;;1.00;99.90;;;;;;5101001;28;20078;-61
2022/12/25 11:18:51;;;;;;;4.88;2.20;;;1.10;99.90;;;;;;5095788;28;20381;-61
2022/12/25 11:21:24;;;;;;;5.32;2.30;;;1.10;99.90;;;;;;5097069;28;20047;-63
2022/12/25 11:24:00;;;;;;;4.22;2.00;;;1.10;99.90;;;;;;5094030;28;20346;-64
2022/12/25 11:26:29;;;;;;;2.85;1.67;;;1.10;99.90;;;;;;5092891;28;20665;-62
2022/12/25 11:28:58;;;;;;;3.47;2.20;;;1.10;99.90;;;;;;5097762;28;20392;-62
2022/12/25 11:31:39;;;;;;;3.70;2.60;;;1.10;99.90;;;;;;5098785;28;20288;-60
2022/12/25 11:34:29;;;;;;;3.03;2.08;;;1.10;99.90;;;;;;5095769;28;20055;-63
2022/12/25 11:36:58;;;;;;;3.50;2.25;;;1.10;99.90;;;;;;5095083;28;20048;-61
2022/12/25 11:39:36;;;;;;;8.07;2.30;;;1.10;99.90;;;;;;5100413;28;20591;-61
2022/12/25 11:42:17;;;;;;;3.10;2.33;;;1.10;99.90;;;;;;5099577;27;20124;-61
2022/12/25 11:45:13;;;;;;;3.20;2.33;;;1.10;99.90;;;;;;5097100;28;20067;-62
2022/12/25 11:47:45;;;;;;;2.88;1.77;;;1.10;99.90;;;;;;5098464;28;20059;-61
2022/12/25 11:50:12;;;;;;;2.05;1.65;;;1.10;99.90;;;;;;5099960;28;20043;-61
2022/12/25 11:52:42;;;;;;;2.10;1.67;;;1.10;99.90;;;;;;5099955;28;20071;-62
2022/12/25 11:55:34;;;;;;;4.68;1.83;;;1.10;99.90;;;;;;5095436;28;20061;-61
2022/12/25 11:58:07;;;;;;;4.80;1.80;;;1.10;99.90;;;;;;5085089;28;20048;-61
2022/12/25 12:00:35;;;;;;;3.22;1.90;;;1.10;99.90;;;;;;5095503;28;20062;-62
2022/12/25 12:03:15;;;;;;;3.33;1.75;;;1.10;99.90;;;;;;5091806;28;20055;-62
2022/12/25 12:05:46;;;;;;;4.82;1.50;;;1.20;99.90;;;;;;5099008;28;20055;-63
2022/12/25 12:08:14;;;;;;;2.00;1.55;;;1.20;99.90;;;;;;5099920;28;20051;-60
2022/12/25 12:10:59;;;;;;;3.50;1.95;;;1.20;99.90;;;;;;5091580;28;20428;-61
2022/12/25 12:13:39;;;;;;;3.67;1.60;;;1.20;99.90;;;;;;5094929;28;20137;-60
2022/12/25 12:16:07;;;;;;;1.73;1.48;;;1.20;99.90;;;;;;5098633;28;20083;-61
2022/12/25 12:18:35;;;;;;;2.38;1.35;;;1.20;99.90;;;;;;5074708;28;20126;-60
2022/12/25 12:21:24;;;;;;;3.20;1.40;;;1.20;99.90;;;;;;5092603;28;20054;-61
2022/12/25 12:24:04;;;;;;;3.20;2.10;;;1.20;99.90;;;;;;5099064;28;20070;-62
2022/12/25 12:26:36;;;;;;;2.38;1.88;;;1.20;99.90;;;;;;5094908;28;20316;-62
2022/12/25 12:29:07;;;;;;;4.07;1.90;;;1.20;99.90;;;;;;5087071;28;20055;-63
2022/12/25 12:31:44;;;;;;;6.10;2.65;;;1.20;99.90;;;;;;5102283;28;20127;-61
2022/12/25 12:34:20;;;;;;;2.92;1.55;;;1.20;99.90;;;;;;5094613;28;20453;-62
2022/12/25 12:36:49;;;;;;;4.82;2.10;;;1.20;99.90;;;;;;5094046;28;20100;-62
2022/12/25 12:39:26;;;;;;;4.82;2.08;;;1.20;99.90;;;;;;5095301;28;20063;-62
2022/12/25 12:41:53;;;;;;;8.00;2.17;;;1.20;99.90;;;;;;5088962;28;20544;-62
2022/12/25 12:44:24;;;;;;;4.78;1.60;;;1.10;99.90;;;;;;5088502;28;20141;-61
2022/12/25 12:46:55;;;;;;;2.75;1.48;;;1.10;99.90;;;;;;5094454;28;20053;-62
2022/12/25 12:49:28;;;;;;;2.78;1.50;;;1.10;99.90;;;;;;5095598;28;20055;-62
2022/12/25 12:52:24;;;;;;;2.53;1.77;;;1.00;99.90;;;;;;5094228;28;20075;-61
2022/12/25 12:54:58;;;;;;;2.05;1.48;;;1.00;99.90;;;;;;5096486;28;20043;-60
2022/12/25 12:57:30;;;;;;;4.80;1.92;;;1.00;99.90;;;;;;5096066;28;20066;-64
2022/12/25 13:00:00;;;;;;;3.90;2.33;;;0.90;99.90;;;;;;5094426;28;20576;-61
2022/12/25 13:03:12;;;;;;;2.47;2.20;;;0.90;99.90;;;;;;5095182;28;20050;-62
2022/12/25 13:06:11;;;;;;;4.80;2.60;;;0.90;99.90;;;;;;5096009;28;20097;-62
2022/12/25 13:08:46;;;;;;;3.65;2.55;;;0.90;99.90;;;;;;5083033;28;20044;-61
2022/12/25 13:11:21;;;;;;;3.63;2.20;;;0.90;99.90;;;;;;5097269;28;20140;-61
2022/12/25 13:13:50;;;;;;;4.85;2.80;;;0.80;99.90;;;;;;5093156;28;20146;-61
2022/12/25 13:16:34;;;;;;;1.70;1.58;;;0.70;99.90;;;;;;5100025;28;20505;-62
2022/12/25 13:19:10;;;;;;;3.15;2.22;;;0.70;99.90;;;;;;5078291;28;20412;-62
2022/12/25 13:21:37;;;;;;;4.85;2.90;;;0.70;99.90;;;;;;5099637;28;20062;-62
2022/12/25 13:24:17;;;;;;;3.10;2.22;;;0.60;99.90;;;;;;5099982;28;20052;-61
2022/12/25 13:26:44;;;;;;;4.57;2.00;;;0.60;99.90;;;;;;5097944;28;20078;-62
2022/12/25 13:29:29;;;;;;;2.30;2.00;;;0.60;99.90;;;;;;5103253;28;20043;-62
2022/12/25 13:32:00;;;;;;;1.88;1.48;;;0.50;99.90;;;;;;5101404;28;20040;-61
2022/12/25 13:34:32;;;;;;;3.90;2.20;;;0.50;99.90;;;;;;5097476;28;20051;-61
2022/12/25 13:37:09;;;;;;;2.92;1.90;;;0.50;99.90;;;;;;5082551;28;20047;-62
2022/12/25 13:39:44;;;;;;;6.25;2.85;;;0.40;99.90;;;;;;5098973;28;20128;-62
2022/12/25 13:42:16;;;;;;;3.22;2.00;;;0.40;99.90;;;;;;5102539;27;20659;-62
2022/12/25 13:44:50;;;;;;;2.38;1.90;;;0.30;99.90;;;;;;5094004;28;20079;-62
2022/12/25 13:47:25;;;;;;;2.28;1.85;;;0.30;99.90;;;;;;5097643;28;20048;-61
2022/12/25 13:49:54;;;;;;;2.05;1.77;;;0.20;99.90;;;;;;5102971;28;20086;-62
2022/12/25 13:52:27;;;;;;;3.63;2.22;;;0.20;99.90;;;;;;5102662;28;20043;-61
2022/12/25 13:54:58;;;;;;;4.18;2.97;;;0.20;99.90;;;;;;5096647;28;20564;-61
2022/12/25 13:57:32;;;;;;;2.53;2.33;;;0.10;99.90;;;;;;5099172;28;20058;-62
2022/12/25 14:00:01;;;;;;;3.08;2.20;;;0.10;99.90;;;;;;5094216;28;20094;-61
2022/12/25 14:02:35;;;;;;;5.03;3.00;;;0.10;99.90;;;;;;5103238;28;20135;-63
2022/12/25 14:05:03;;;;;;;5.75;2.75;;;0.00;99.90;;;;;;5093750;28;20074;-64
2022/12/25 14:07:30;;;;;;;2.97;2.13;;;0.00;99.90;;;;;;5101496;28;20955;-61
2022/12/25 14:10:01;;;;;;;6.63;3.08;;;-0.10;99.90;;;;;;5100932;28;20131;-63
2022/12/25 14:12:29;;;;;;;;;;;-0.10;99.90;;;;;;5100630;28;20047;-61
2022/12/25 14:14:57;;;;;;;4.28;3.50;;;-0.20;99.90;;;;;;5096775;28;20282;-61
2022/12/25 14:17:24;;;;;;;3.97;2.95;;;-0.20;99.90;;;;;;5095042;28;20135;-61
2022/12/25 14:19:58;;;;;;;2.95;2.53;;;-0.30;99.90;;;;;;5096962;28;20435;-61
2022/12/25 14:22:34;;;;;;;4.85;2.53;;;-0.30;99.90;;;;;;5100743;28;20047;-62
2022/12/25 14:25:01;;;;;;;3.75;2.50;;;-0.40;99.90;;;;;;5097261;28;20047;-63
2022/12/25 14:27:31;;;;;;;3.85;2.22;;;-0.50;99.90;;;;;;5098225;28;20534;-62
2022/12/25 14:29:59;;;;;;;6.00;3.05;;;-0.50;99.90;;;;;;5100341;28;20055;-63
2022/12/25 14:32:36;;;;;;;7.38;2.55;;;-0.50;99.90;;;;;;5099288;28;20044;-61
2022/12/25 14:35:03;;;;;;;5.25;3.80;;;-0.50;99.90;;;;;;5093032;28;20151;-61
2022/12/25 14:37:31;;;;;;;7.25;4.43;;;-0.50;99.90;;;;;;5101325;28;20050;-62
2022/12/25 14:40:01;;;;;;;5.22;3.65;;;-0.50;99.90;;;;;;5103824;28;20512;-61
2022/12/25 14:42:31;;;;;;;6.55;3.88;;;-0.60;99.90;;;;;;5091564;28;20420;-62
2022/12/25 14:45:24;;;;;;;4.63;3.60;;;-0.60;99.90;;;;;;5093090;28;20055;-61
2022/12/25 14:47:57;;;;;;;4.30;3.95;;;-0.70;99.90;;;;;;5097715;28;20721;-61
2022/12/25 14:50:36;;;;;;;4.70;2.88;;;-0.60;99.90;;;;;;5077287;28;20170;-62
2022/12/25 14:53:15;;;;;;;5.60;2.97;;;-0.70;99.90;;;;;;5098163;28;20043;-63
2022/12/25 14:55:50;;;;;;;7.18;3.95;;;-0.70;99.90;;;;;;5101166;28;20054;-61
2022/12/25 14:58:30;;;;;;;5.45;4.35;;;-0.80;99.90;;;;;;5097007;28;20428;-62
2022/12/25 15:00:59;;;;;;;5.32;4.75;;;-0.80;99.90;;;;;;5098520;28;20461;-61
2022/12/25 15:03:29;;;;;;;4.63;3.63;;;-0.80;99.90;;;;;;5098962;28;20155;-62
2022/12/25 15:06:04;;;;;;;5.13;4.30;;;-0.80;99.90;;;;;;5097184;28;20116;-61
2022/12/25 15:08:33;;;;;;;7.45;4.50;;;-0.80;99.90;;;;;;5095624;28;20051;-62
2022/12/25 15:11:00;;;;;;;7.80;5.10;;;-0.80;99.90;;;;;;5097958;28;20058;-61
2022/12/25 15:13:30;;;;;;;7.45;6.00;;;-0.70;99.90;;;;;;5075777;28;20062;-62
2022/12/25 15:16:13;;;;;;;8.38;5.20;;;-0.70;99.90;;;;;;5098385;28;20059;-60
2022/12/25 15:18:44;;;;;;;16.55;7.07;;;-0.80;99.90;;;;;;5096471;28;20565;-61
2022/12/25 15:21:23;;;;;;;8.52;6.65;;;-0.80;99.90;;;;;;5093400;28;20069;-61
2022/12/25 15:23:52;;;;;;;9.82;6.80;;;-0.80;99.90;;;;;;5094863;28;20057;-63
2022/12/25 15:26:19;;;;;;;8.15;7.30;;;-0.80;99.90;;;;;;5099780;28;20094;-62
2022/12/25 15:28:47;;;;;;;8.38;6.57;;;-0.80;99.90;;;;;;5095868;28;20085;-62
2022/12/25 15:31:23;;;;;;;10.85;6.32;;;-0.80;99.90;;;;;;5096750;28;20044;-62
2022/12/25 15:33:52;;;;;;;7.80;6.95;;;-0.70;99.90;;;;;;5099248;28;20052;-60
2022/12/25 15:36:19;;;;;;;6.60;5.28;;;-0.70;99.90;;;;;;5096143;28;20076;-61
2022/12/25 15:38:46;;;;;;;12.40;6.80;;;-0.70;99.90;;;;;;5079179;28;20086;-60
2022/12/25 15:44:20;;;;;;;12.82;7.50;;;-0.70;99.90;;;;;;5097069;28;20070;-67
2022/12/25 15:46:47;;;;;;;13.20;7.75;;;-0.70;99.90;;;;;;5099180;28;20051;-61
2022/12/25 15:49:15;;;;;;;10.55;7.55;;;-0.60;99.90;;;;;;5097923;28;20127;-60
2022/12/25 15:51:43;;;;;;;11.35;7.70;;;-0.60;99.90;;;;;;5098097;28;20094;-61
2022/12/25 15:54:10;;;;;;;11.60;8.63;;;-0.50;99.90;;;;;;5092639;28;20078;-61
2022/12/25 15:56:47;;;;;;;11.57;8.10;;;-0.50;99.90;;;;;;5093696;28;20044;-61
2022/12/25 15:59:16;;;;;;;10.07;8.63;;;-0.40;99.90;;;;;;5096121;28;20128;-62
2022/12/25 16:02:19;;;;;;;8.73;7.43;;;-0.40;99.90;;;;;;5095132;28;20048;-61
2022/12/25 16:04:47;;;;;;;10.82;7.55;;;-0.40;99.90;;;;;;5096963;28;20074;-61
2022/12/25 16:07:17;;;;;;;11.13;8.02;;;-0.40;99.90;;;;;;5100816;28;20191;-61
2022/12/25 16:09:44;;;;;;;11.30;8.30;;;-0.40;99.90;;;;;;5099087;28;20131;-61
2022/12/25 16:12:11;;;;;;;12.07;8.40;;;-0.30;99.90;;;;;;5094407;28;20066;-63
2022/12/25 16:14:38;;;;;;;12.13;8.90;;;-0.30;99.90;;;;;;5094373;28;20085;-62
2022/12/25 16:17:05;;;;;;;10.95;8.30;;;-0.30;99.90;;;;;;5095769;28;20050;-64
2022/12/25 16:19:32;;;;;;;9.07;7.25;;;-0.20;99.90;;;;;;5094870;28;20230;-61
2022/12/25 16:21:58;;;;;;;9.80;7.90;;;-0.20;99.90;;;;;;5098942;28;20047;-61
2022/12/25 16:24:25;;;;;;;12.02;7.97;;;-0.10;99.90;;;;;;5094629;28;20063;-61
2022/12/25 16:26:52;;;;;;;9.48;7.07;;;-0.10;99.90;;;;;;5095771;28;20536;-64
2022/12/25 16:29:19;;;;;;;9.50;7.53;;;-0.10;99.90;;;;;;5095702;28;20207;-61
2022/12/25 16:31:46;;;;;;;9.70;7.15;;;-0.10;99.90;;;;;;5100374;28;20443;-63
2022/12/25 16:34:13;;;;;;;14.98;7.82;;;-0.10;99.90;;;;;;5096490;28;20059;-61
2022/12/25 16:36:40;;;;;;;10.38;6.72;;;-0.10;99.90;;;;;;5096122;28;20146;-61
2022/12/25 16:39:07;;;;;;;7.43;6.60;;;-0.10;99.90;;;;;;5097519;28;20059;-62
2022/12/25 16:41:34;;;;;;;9.32;6.25;;;-0.10;99.90;;;;;;5097037;28;20716;-61
2022/12/25 16:44:08;;;;;;;7.63;5.90;;;0.00;99.90;;;;;;5100436;28;20043;-60
2022/12/25 16:46:36;;;;;;;8.50;6.38;;;0.10;99.90;;;;;;5102807;28;20422;-62
2022/12/25 16:49:03;;;;;;;8.95;6.25;;;0.10;99.90;;;;;;5096854;28;20039;-64
2022/12/25 16:51:30;;;;;;;11.27;5.95;;;0.10;99.90;;;;;;5103866;28;20051;-61
2022/12/25 16:53:57;;;;;;;6.18;5.00;;;0.10;99.90;;;;;;5101768;28;20051;-64
2022/12/25 16:56:27;;;;;;;10.02;6.22;;;0.10;99.90;;;;;;5101778;28;20058;-62
2022/12/25 16:58:55;;;;;;;6.03;5.18;;;0.10;99.90;;;;;;5096956;27;20054;-62
2022/12/25 17:01:23;;;;;;;8.23;4.85;;;0.10;99.90;;;;;;5105639;27;20515;-60
2022/12/25 17:03:50;;;;;;;6.68;5.68;;;0.10;99.90;;;;;;5101201;28;20430;-61
2022/12/25 17:06:19;;;;;;;10.02;6.20;;;0.20;99.90;;;;;;5083455;28;20052;-61
2022/12/25 17:08:46;;;;;;;7.75;6.15;;;0.20;99.90;;;;;;5082262;28;20126;-61
2022/12/25 17:11:13;;;;;;;8.75;5.72;;;0.10;99.90;;;;;;5097440;28;20378;-63
2022/12/25 17:13:44;;;;;;;5.93;4.50;;;0.10;99.90;;;;;;5083022;27;20048;-61
2022/12/25 17:16:12;;;;;;;5.65;4.35;;;0.10;99.90;;;;;;5100817;27;20136;-62
2022/12/25 17:18:39;;;;;;;8.52;4.97;;;0.10;99.90;;;;;;5095896;28;20651;-61
2022/12/25 17:21:06;;;;;;;8.35;4.68;;;0.10;99.90;;;;;;5104384;28;20441;-64
2022/12/25 17:23:34;;;;;;;5.32;4.00;;;0.10;99.90;;;;;;5098477;28;20048;-61
2022/12/25 17:26:02;;;;;;;5.60;4.65;;;0.10;99.90;;;;;;5103694;28;20048;-61
2022/12/25 17:28:29;;;;;;;7.22;4.68;;;0.10;99.90;;;;;;5100328;28;20083;-64
2022/12/25 17:31:01;;;;;;;5.68;5.03;;;0.00;99.90;;;;;;5100585;27;20050;-63
2022/12/25 17:33:28;;;;;;;7.75;6.00;;;0.00;99.90;;;;;;5106454;27;20047;-62
2022/12/25 17:36:00;;;;;;;8.38;6.30;;;0.00;99.90;;;;;;5101708;28;20059;-61
2022/12/25 17:38:30;;;;;;;7.85;5.70;;;0.00;99.90;;;;;;5105719;27;20047;-61
2022/12/25 17:40:59;;;;;;;10.00;6.25;;;-0.10;99.90;;;;;;5093570;28;20145;-61
2022/12/25 17:43:26;;;;;;;9.05;6.22;;;-0.10;99.90;;;;;;5094900;28;20139;-62
2022/12/25 17:45:53;;;;;;;16.40;8.60;;;-0.10;99.90;;;;;;5100137;27;20059;-62
2022/12/25 17:48:20;;;;;;;8.30;7.00;;;-0.10;99.90;;;;;;5096876;28;20079;-62
2022/12/25 17:50:47;;;;;;;7.88;6.15;;;-0.10;99.90;;;;;;5094356;28;20043;-61
2022/12/25 17:53:14;;;;;;;10.10;6.50;;;-0.20;99.90;;;;;;5097761;28;20048;-62
2022/12/25 17:55:41;;;;;;;9.02;5.70;;;-0.20;99.90;;;;;;5102245;28;20150;-61
2022/12/25 17:58:08;;;;;;;9.57;7.00;;;-0.20;99.90;;;;;;5096712;28;20180;-61
2022/12/25 18:00:36;;;;;;;8.23;6.90;;;-0.30;99.90;;;;;;5103740;28;20069;-62
2022/12/25 18:03:03;;;;;;;6.30;5.70;;;-0.30;99.90;;;;;;5098551;27;20139;-61
2022/12/25 18:05:37;;;;;;;7.38;5.95;;;-0.30;99.90;;;;;;5103291;28;20048;-62
2022/12/25 18:08:04;;;;;;;8.43;6.18;;;-0.30;99.90;;;;;;5098202;28;20138;-61
2022/12/25 18:10:37;;;;;;;7.88;6.53;;;-0.30;99.90;;;;;;5100729;27;20779;-61
2022/12/25 18:13:04;;;;;;;8.23;6.20;;;-0.30;99.90;;;;;;5096702;28;20470;-61
2022/12/25 18:15:35;;;;;;;9.20;5.75;;;-0.30;99.90;;;;;;5103668;27;20051;-60
2022/12/25 18:18:01;;;;;;;12.75;6.60;;;-0.30;99.90;;;;;;5095783;27;20502;-63
2022/12/25 18:20:29;;;;;;;9.68;7.05;;;-0.30;99.90;;;;;;5099462;28;20047;-61
2022/12/25 18:23:05;;;;;;;8.68;7.03;;;-0.30;99.90;;;;;;5099626;27;20105;-61
2022/12/25 18:25:32;;;;;;;8.52;5.80;;;-0.30;99.90;;;;;;5100703;28;20055;-61
2022/12/25 18:28:00;;;;;;;11.93;6.18;;;-0.30;99.90;;;;;;5103215;27;20082;-61
2022/12/25 18:30:28;;;;;;;7.20;5.50;;;-0.30;99.90;;;;;;5103611;27;20043;-62
2022/12/25 18:32:55;;;;;;;6.88;5.43;;;-0.20;99.90;;;;;;5100282;27;20047;-62
2022/12/25 18:35:27;;;;;;;9.57;6.10;;;-0.30;99.90;;;;;;5100550;28;20528;-63
2022/12/25 18:37:55;;;;;;;10.60;7.00;;;-0.40;99.90;;;;;;5102417;28;20858;-60
2022/12/25 18:40:22;;;;;;;8.52;6.43;;;-0.30;99.90;;;;;;5099260;28;20126;-61
2022/12/25 18:42:52;;;;;;;8.23;6.22;;;-0.30;99.90;;;;;;5095519;28;20043;-60
2022/12/25 18:45:28;;;;;;;9.73;6.15;;;-0.40;99.90;;;;;;5102072;27;20063;-63
2022/12/25 18:47:55;;;;;;;11.02;7.30;;;-0.40;99.90;;;;;;5103702;28;20727;-65
2022/12/25 18:50:22;;;;;;;8.95;6.90;;;-0.40;99.90;;;;;;5101366;27;20071;-61
2022/12/25 18:52:49;;;;;;;8.23;5.78;;;-0.40;99.90;;;;;;5099630;27;20139;-60
2022/12/25 18:55:17;;;;;;;9.63;6.78;;;-0.40;99.90;;;;;;5101075;28;20100;-61
2022/12/25 18:57:44;;;;;;;9.38;6.45;;;-0.50;99.90;;;;;;5100030;27;20051;-61
2022/12/25 19:00:12;;;;;;;7.97;6.25;;;-0.50;99.90;;;;;;5105775;27;20555;-61
2022/12/25 19:02:39;;;;;;;14.48;7.20;;;-0.60;99.90;;;;;;5096889;27;20067;-64
2022/12/25 19:05:06;;;;;;;9.60;7.05;;;-0.60;99.90;;;;;;5101974;27;20131;-62
2022/12/25 19:07:34;;;;;;;9.48;6.05;;;-0.50;99.90;;;;;;5099113;28;20052;-61
2022/12/25 19:10:02;;;;;;;10.43;7.18;;;-0.60;99.90;;;;;;5099449;28;20063;-61
2022/12/25 19:12:29;;;;;;;11.05;6.63;;;-0.50;99.90;;;;;;5099819;28;20417;-60
2022/12/25 19:14:56;;;;;;;12.48;7.72;;;-0.40;99.90;;;;;;5100865;28;20058;-62
2022/12/25 19:17:23;;;;;;;10.13;7.38;;;-0.40;99.90;;;;;;5101597;28;20083;-60
2022/12/25 19:19:57;;;;;;;14.88;7.03;;;-0.40;99.90;;;;;;5097609;28;20058;-61
2022/12/25 19:22:24;;;;;;;12.60;6.28;;;-0.40;99.90;;;;;;5093513;28;20911;-62
2022/12/25 19:24:51;;;;;;;11.10;6.68;;;-0.40;99.90;;;;;;5097505;28;20047;-61
2022/12/25 19:27:18;;;;;;;12.43;7.22;;;-0.40;99.90;;;;;;5100040;28;20062;-62
2022/12/25 19:29:45;;;;;;;10.23;6.68;;;-0.40;99.90;;;;;;5103845;28;20048;-61
2022/12/25 19:32:12;;;;;;;8.95;7.32;;;-0.40;99.90;;;;;;5102361;28;20051;-61
2022/12/25 19:34:38;;;;;;;10.07;6.75;;;-0.40;99.90;;;;;;5091677;28;20040;-64
2022/12/25 19:37:06;;;;;;;14.23;8.52;;;-0.40;99.90;;;;;;5096402;28;20059;-61
2022/12/25 19:39:44;;;;;;;10.43;7.53;;;-0.40;99.90;;;;;;5023510;28;20893;-61
2022/12/25 19:42:15;;;;;;;10.50;6.85;;;-0.40;99.90;;;;;;4973134;28;20771;-62
2022/12/25 19:44:42;;;;;;;8.85;6.63;;;-0.30;99.90;;;;;;4976259;28;20074;-64
2022/12/25 19:47:09;;;;;;;12.15;7.35;;;-0.40;99.90;;;;;;4976449;28;20055;-61
2022/12/25 19:49:36;;;;;;;7.78;5.88;;;-0.40;99.90;;;;;;4978756;28;20050;-62
2022/12/25 19:52:06;;;;;;;12.20;5.75;;;-0.40;99.90;;;;;;4979998;28;20447;-61
2022/12/25 19:54:33;;;;;;;9.45;6.50;;;-0.40;99.90;;;;;;4978220;28;20137;-63
2022/12/25 19:57:00;;;;;;;9.73;6.53;;;-0.40;99.90;;;;;;4973859;28;20408;-61
2022/12/25 19:59:27;;;;;;;7.07;6.38;;;-0.40;99.90;;;;;;4974819;28;20051;-61
2022/12/25 20:01:54;;;;;;;10.40;6.68;;;-0.40;99.90;;;;;;4979481;28;20046;-63
2022/12/25 20:04:21;;;;;;;11.00;5.95;;;-0.40;99.90;;;;;;4973620;28;20089;-62
2022/12/25 20:06:48;;;;;;;10.95;6.13;;;-0.40;99.90;;;;;;4977856;28;20046;-62
2022/12/25 20:09:18;;;;;;;11.10;6.60;;;-0.50;99.90;;;;;;4975839;28;20043;-61
2022/12/25 20:11:47;;;;;;;11.07;7.47;;;-0.50;99.90;;;;;;4978309;28;20057;-62
2022/12/25 20:14:15;;;;;;;10.25;6.15;;;-0.50;99.90;;;;;;4977170;28;20064;-62
2022/12/25 20:16:43;;;;;;;9.45;7.25;;;-0.50;99.90;;;;;;4975121;28;20054;-63
2022/12/25 20:19:13;;;;;;;10.32;6.47;;;-0.60;99.90;;;;;;4978247;28;20234;-65
2022/12/25 20:21:40;;;;;;;10.38;6.35;;;-0.60;99.90;;;;;;4979571;28;20142;-61
2022/12/25 20:24:09;;;;;;;8.40;7.28;;;-0.60;99.90;;;;;;4975822;28;20078;-61
2022/12/25 20:26:37;;;;;;;9.13;5.93;;;-0.70;99.90;;;;;;4975828;28;20069;-61
2022/12/25 20:29:05;;;;;;;10.57;6.65;;;-0.70;99.90;;;;;;4970477;28;20208;-61
2022/12/25 20:31:33;;;;;;;12.20;7.15;;;-0.60;99.90;;;;;;4976739;28;20202;-62
2022/12/25 20:34:07;;;;;;;10.50;8.13;;;-0.60;99.90;;;;;;4971798;28;20042;-61
2022/12/25 20:36:34;;;;;;;9.43;6.88;;;-0.60;99.90;;;;;;4977733;28;20619;-61
2022/12/25 20:39:07;;;;;;;8.75;7.88;;;-0.50;99.90;;;;;;4976118;28;20047;-61
2022/12/25 20:41:34;;;;;;;12.27;8.50;;;-0.50;99.90;;;;;;4977249;28;20062;-62
2022/12/25 20:44:03;;;;;;;8.75;7.07;;;-0.50;99.90;;;;;;4977450;28;20072;-64
2022/12/25 20:46:30;;;;;;;9.15;5.80;;;-0.50;99.90;;;;;;4979345;28;20047;-64
2022/12/25 20:48:57;;;;;;;12.48;8.13;;;-0.40;99.90;;;;;;4973201;28;20073;-60
2022/12/25 20:51:25;;;;;;;9.15;6.22;;;-0.40;99.90;;;;;;4960301;28;20469;-62
2022/12/25 20:53:53;;;;;;;11.25;6.70;;;-0.40;99.90;;;;;;4966419;28;20058;-63
2022/12/25 20:56:22;;;;;;;9.88;5.97;;;-0.30;99.90;;;;;;4961834;28;20055;-61
2022/12/25 20:58:57;;;;;;;9.90;7.65;;;-0.20;99.90;;;;;;4960180;28;20848;-62
2022/12/25 21:01:25;;;;;;;11.88;7.63;;;0.00;99.90;;;;;;4959148;28;20078;-63
2022/12/25 21:03:53;;;;;;;11.35;7.18;;;0.10;99.90;;;;;;4966704;28;20046;-62
2022/12/25 21:06:21;;;;;;;14.82;8.75;;;0.30;99.90;;;;;;4959131;28;20133;-61
2022/12/25 21:08:48;;;;;;;9.60;7.40;;;0.40;99.90;;;;;;4963579;28;20146;-62
2022/12/25 21:11:16;;;;;;;11.48;7.63;;;0.50;99.90;;;;;;4959652;28;20125;-61
2022/12/25 21:13:44;;;;;;;9.82;7.15;;;0.50;99.90;;;;;;4958199;28;20055;-62
2022/12/25 21:16:15;;;;;;;11.57;7.50;;;0.50;99.90;;;;;;4961373;28;20134;-61
2022/12/25 21:18:42;;;;;;;12.65;8.13;;;0.70;99.90;;;;;;4960969;28;20055;-61
2022/12/25 21:21:09;;;;;;;9.35;6.82;;;0.70;99.90;;;;;;4962794;28;20146;-62
2022/12/25 21:23:38;;;;;;;11.15;7.88;;;0.80;99.90;;;;;;4958252;28;20397;-60
2022/12/25 21:26:17;;;;;;;12.02;8.35;;;0.80;99.90;;;;;;4959449;28;20153;-61
2022/12/25 21:28:48;;;;;;;11.35;6.90;;;0.90;99.90;;;;;;4967711;28;20058;-62
2022/12/25 21:31:15;;;;;;;12.70;7.70;;;0.90;99.90;;;;;;4964514;28;20212;-61
2022/12/25 21:33:51;;;;;;;12.32;7.40;;;0.90;99.90;;;;;;4961954;28;20359;-62
2022/12/25 21:36:28;;;;;;;12.98;7.25;;;0.90;99.90;;;;;;4961288;28;20049;-64
2022/12/25 21:39:06;;;;;;;17.55;9.52;;;1.00;99.90;;;;;;4960345;28;20104;-61
2022/12/25 21:41:36;;;;;;;11.82;8.43;;;1.00;99.90;;;;;;4962577;28;20093;-61
2022/12/25 21:44:03;;;;;;;;;;;1.10;99.90;;;;;;4959664;28;20157;-63
2022/12/25 21:46:30;;;;;;;16.77;8.68;;;1.10;99.90;;;;;;4962685;28;20492;-61
2022/12/25 21:48:58;;;;;;;10.50;6.97;;;1.20;99.90;;;;;;4957502;28;20053;-65
2022/12/25 21:54:21;;;;;;;12.75;7.35;;;1.30;99.90;;;;;;4961975;28;20059;-61
2022/12/25 21:56:48;;;;;;;13.02;8.13;;;1.30;99.90;;;;;;4959830;28;20046;-62
2022/12/25 21:59:18;;;;;;;11.25;7.20;;;1.40;99.90;;;;;;4962361;28;20465;-63
2022/12/25 22:01:46;;;;;;;12.52;7.57;;;1.40;99.90;;;;;;4958403;28;20051;-62
2022/12/25 22:04:14;;;;;;;11.93;6.95;;;1.40;99.90;;;;;;4960694;28;20130;-62